Time;durP1;ratioP1;P1;durP2;ratioP2;P2;SDS_P1;SDS_P2;PMS_P1;PMS_P2;Temp;Humidity;BMP_temperature;BMP_pressure;BME280_temperature;BME280_humidity;BME280_pressure;Samples;Min_cycle;Max_cycle;Signal;HPM_P1;HPM_P2
2021/09/27 00:00:55;;;;;;;21.65;13.68;;;;;;;17.87;75.85;101518.22;4992995;28;20084;-52
2021/09/27 00:03:20;;;;;;;22.10;14.10;;;;;;;17.89;76.02;101510.31;4997426;28;20068;-48
2021/09/27 00:05:46;;;;;;;23.20;14.90;;;;;;;17.94;76.06;101508.50;5002432;28;20533;-52
2021/09/27 00:08:12;;;;;;;21.88;13.52;;;;;;;17.94;75.65;101500.59;4999933;28;20151;-50
2021/09/27 00:10:49;;;;;;;24.30;14.60;;;;;;;17.80;76.38;101498.06;5002664;28;20071;-52
2021/09/27 00:13:16;;;;;;;21.40;13.45;;;;;;;17.82;76.09;101499.78;5000994;28;20058;-51
2021/09/27 00:15:46;;;;;;;22.92;13.77;;;;;;;17.83;75.80;101501.56;4996194;28;20042;-48
2021/09/27 00:18:13;;;;;;;22.98;14.27;;;;;;;17.72;76.38;101499.88;4996928;28;20550;-53
2021/09/27 00:20:41;;;;;;;19.85;13.48;;;;;;;17.68;76.54;101495.50;4998488;28;20265;-51
2021/09/27 00:23:07;;;;;;;22.60;13.38;;;;;;;17.73;76.42;101494.59;4992982;28;20385;-51
2021/09/27 00:25:33;;;;;;;23.40;13.82;;;;;;;17.69;76.56;101497.22;5004746;28;20484;-48
2021/09/27 00:27:58;;;;;;;21.25;13.70;;;;;;;17.62;76.87;101482.34;4998728;28;20057;-48
2021/09/27 00:30:25;;;;;;;25.77;15.40;;;;;;;17.57;77.01;101484.09;4999631;28;20033;-50
2021/09/27 00:32:51;;;;;;;23.38;13.90;;;;;;;17.56;76.75;101479.72;4994282;28;20064;-57
2021/09/27 00:35:22;;;;;;;22.60;13.93;;;;;;;17.53;76.88;101483.25;5001900;28;20034;-48
2021/09/27 00:37:47;;;;;;;25.73;15.35;;;;;;;17.51;77.11;101474.44;4996820;28;20033;-52
2021/09/27 00:40:18;;;;;;;29.55;16.60;;;;;;;17.48;77.57;101470.97;5003794;28;20299;-51
2021/09/27 00:42:45;;;;;;;28.38;15.07;;;;;;;17.50;77.27;101475.38;4999283;28;20050;-53
2021/09/27 00:45:12;;;;;;;25.30;14.88;;;;;;;17.48;77.47;101473.59;4999966;28;20053;-50
2021/09/27 00:47:38;;;;;;;22.10;14.45;;;;;;;17.47;77.19;101474.50;5001798;28;20451;-50
2021/09/27 00:50:05;;;;;;;22.88;13.75;;;;;;;17.46;77.12;101470.97;5002085;28;20038;-53
2021/09/27 00:52:30;;;;;;;21.88;13.73;;;;;;;17.45;77.08;101469.22;5007494;28;20045;-49
2021/09/27 00:54:56;;;;;;;25.50;14.90;;;;;;;17.45;77.00;101475.38;4992793;28;20033;-47
2021/09/27 00:57:23;;;;;;;27.10;15.57;;;;;;;17.40;77.23;101482.44;5001634;28;20054;-50
2021/09/27 00:59:50;;;;;;;23.38;14.30;;;;;;;17.35;77.52;101485.97;5004924;28;20045;-50
2021/09/27 01:02:17;;;;;;;26.23;15.18;;;;;;;17.40;76.98;101481.56;5004484;28;20038;-49
2021/09/27 01:04:42;;;;;;;31.27;17.05;;;;;;;17.38;78.03;101471.00;5001057;28;20124;-55
2021/09/27 01:07:19;;;;;;;23.77;14.13;;;;;;;17.43;77.48;101460.47;4992947;28;20128;-50
2021/09/27 01:10:11;;;;;;;24.52;15.93;;;;;;;17.40;77.62;101461.34;4997518;28;20056;-53
2021/09/27 01:13:02;;;;;;;25.65;15.18;;;;;;;17.38;77.72;101464.88;5000573;28;20045;-52
2021/09/27 01:16:05;;;;;;;26.65;15.90;;;;;;;17.37;77.62;101457.84;4998146;28;20150;-49
2021/09/27 01:18:49;;;;;;;24.42;14.57;;;;;;;17.36;77.84;101459.63;5003125;28;20041;-52
2021/09/27 01:22:01;;;;;;;27.13;15.43;;;;;;;17.37;77.60;101457.84;4999061;28;20053;-51
2021/09/27 01:24:55;;;;;;;27.50;15.43;;;;;;;17.35;78.09;101456.97;4983940;28;20049;-53
2021/09/27 01:27:27;;;;;;;30.73;16.73;;;;;;;17.37;78.04;101458.75;4992663;28;20053;-52
2021/09/27 01:30:11;;;;;;;31.67;16.25;;;;;;;17.39;77.57;101462.22;5003500;28;20047;-49
2021/09/27 01:33:00;;;;;;;26.88;14.60;;;;;;;17.42;77.59;101462.22;5002691;28;20421;-53
2021/09/27 01:36:09;;;;;;;30.40;17.90;;;;;;;17.39;77.92;101464.84;5004467;28;20053;-52
2021/09/27 01:38:44;;;;;;;31.77;16.65;;;;;;;17.37;77.44;101466.66;5000275;28;20048;-48
2021/09/27 01:41:30;;;;;;;30.45;16.58;;;;;;;17.37;77.61;101468.41;4993748;28;20061;-50
2021/09/27 01:44:14;;;;;;;28.05;15.90;;;;;;;17.36;77.63;101477.19;4994202;28;20038;-49
2021/09/27 01:46:47;;;;;;;33.67;17.67;;;;;;;17.48;77.55;101478.88;5000917;28;20088;-50
2021/09/27 01:49:28;;;;;;;34.08;17.08;;;;;;;17.45;77.73;101475.38;4993775;28;20042;-51
2021/09/27 01:52:27;;;;;;;34.90;18.20;;;;;;;17.40;78.04;101468.38;5002833;28;20054;-50
2021/09/27 01:55:01;;;;;;;35.95;19.75;;;;;;;17.43;77.99;101466.63;4996780;28;20080;-49
2021/09/27 01:57:41;;;;;;;36.22;19.25;;;;;;;17.38;77.99;101463.09;5001033;28;20497;-51
2021/09/27 02:00:15;;;;;;;33.17;16.63;;;;;;;17.39;77.58;101466.63;5014106;28;20457;-49
2021/09/27 02:03:21;;;;;;;34.85;17.70;;;;;;;17.31;78.10;101471.94;4991682;28;20068;-52
2021/09/27 02:06:09;;;;;;;34.83;19.45;;;;;;;17.31;78.20;101474.59;4937177;28;20065;-52
2021/09/27 02:08:47;;;;;;;35.50;18.73;;;;;;;17.36;78.15;101471.91;4999093;28;20098;-51
2021/09/27 02:11:30;;;;;;;37.30;19.45;;;;;;;17.39;78.03;101462.22;5000398;28;20429;-53
2021/09/27 02:13:55;;;;;;;35.28;18.48;;;;;;;17.42;78.05;101462.22;5002308;28;20073;-53
2021/09/27 02:16:35;;;;;;;34.60;17.42;;;;;;;17.42;77.87;101466.63;5002423;28;20124;-49
2021/09/27 02:19:12;;;;;;;34.55;16.38;;;;;;;17.47;78.01;101466.59;4999086;28;20038;-50
2021/09/27 02:21:40;;;;;;;37.90;19.27;;;;;;;17.45;78.08;101467.47;5001934;28;20049;-50
2021/09/27 02:24:37;;;;;;;39.25;18.83;;;;;;;17.40;78.29;101461.34;5002739;28;20524;-54
2021/09/27 02:27:03;;;;;;;35.88;18.55;;;;;;;17.41;77.85;101456.94;4993077;28;20393;-53
2021/09/27 02:29:29;;;;;;;40.35;19.50;;;;;;;17.38;78.05;101457.81;5002277;28;20475;-53
2021/09/27 02:32:09;;;;;;;34.30;18.48;;;;;;;17.38;77.82;101455.19;5003757;28;20128;-51
2021/09/27 02:34:56;;;;;;;41.47;19.65;;;;;;;17.31;77.74;101447.34;5001389;28;20041;-52
2021/09/27 02:37:56;;;;;;;38.05;19.15;;;;;;;17.27;78.02;101448.22;4999056;28;20083;-50
2021/09/27 02:40:31;;;;;;;39.88;19.38;;;;;;;17.22;78.04;101450.00;4995388;28;20410;-52
2021/09/27 02:42:59;;;;;;;38.72;19.92;;;;;;;17.20;78.02;101451.81;4998398;28;20041;-53
2021/09/27 02:45:27;;;;;;;43.20;21.05;;;;;;;17.17;78.07;101449.16;5012297;28;20090;-52
2021/09/27 02:47:58;;;;;;;40.28;20.48;;;;;;;17.14;78.08;101447.41;5001587;28;20327;-49
2021/09/27 02:50:28;;;;;;;43.25;20.63;;;;;;;17.14;78.39;101449.19;5002114;28;20476;-48
2021/09/27 02:52:55;;;;;;;41.63;20.23;;;;;;;17.10;78.13;101440.41;4997362;28;20521;-50
2021/09/27 02:55:24;;;;;;;39.42;19.58;;;;;;;17.07;78.23;101439.56;5000060;28;20273;-52
2021/09/27 02:58:06;;;;;;;42.75;21.15;;;;;;;17.03;78.55;101438.69;4998158;28;20497;-48
2021/09/27 03:00:57;;;;;;;46.05;21.35;;;;;;;17.06;78.39;101435.16;5000246;28;20045;-51
2021/09/27 03:03:29;;;;;;;38.83;19.35;;;;;;;17.04;78.21;101429.91;4998775;28;20049;-57
2021/09/27 03:06:06;;;;;;;44.78;21.02;;;;;;;17.02;78.42;101437.78;5001469;28;20040;-52
2021/09/27 03:08:42;;;;;;;50.15;21.10;;;;;;;16.95;78.26;101430.81;4997871;28;20046;-53
2021/09/27 03:11:22;;;;;;;46.55;21.10;;;;;;;16.95;78.50;101422.06;4999105;28;20548;-54
2021/09/27 03:13:47;;;;;;;42.22;20.75;;;;;;;16.96;78.50;101418.50;5001849;28;20056;-51
2021/09/27 03:16:22;;;;;;;53.13;23.75;;;;;;;16.94;78.54;101421.16;5000108;28;20045;-50
2021/09/27 03:19:17;;;;;;;54.42;24.02;;;;;;;16.99;78.70;101421.13;5013003;28;20072;-49
2021/09/27 03:22:01;;;;;;;;;;;;;;;16.91;78.89;101421.16;4984741;28;20501;-49
2021/09/27 03:24:38;;;;;;;49.47;21.48;;;;;;;16.92;78.50;101428.19;5001657;28;19975;-49
2021/09/27 03:27:03;;;;;;;54.08;23.17;;;;;;;16.91;78.53;101430.81;4995265;28;20057;-52
2021/09/27 03:30:19;;;;;;;53.22;22.42;;;;;;;16.87;78.50;101422.06;5000266;28;20087;-55
2021/09/27 03:32:57;;;;;;;46.22;21.83;;;;;;;16.84;78.47;101416.81;4939071;28;20331;-53
2021/09/27 03:35:34;;;;;;;51.85;22.60;;;;;;;16.84;78.66;101415.91;4999276;28;20068;-52
2021/09/27 03:38:08;;;;;;;62.30;26.45;;;;;;;16.78;79.21;101403.66;5001128;28;20195;-55
2021/09/27 03:40:54;;;;;;;50.90;23.52;;;;;;;16.79;78.89;101410.69;5001946;28;20052;-57
2021/09/27 03:43:24;;;;;;;53.65;23.02;;;;;;;16.77;78.93;101415.06;4998094;28;20033;-51
2021/09/27 03:45:57;;;;;;;59.78;26.20;;;;;;;16.78;79.08;101408.91;5000397;28;20113;-48
2021/09/27 03:48:47;;;;;;;52.20;23.23;;;;;;;16.81;78.77;101406.28;5011929;28;20421;-51
2021/09/27 03:51:19;;;;;;;53.95;24.33;;;;;;;16.73;78.73;101405.44;4993958;28;20073;-49
2021/09/27 03:53:55;;;;;;;57.90;25.15;;;;;;;16.69;79.27;101408.09;4998176;28;20928;-53
2021/09/27 03:56:29;;;;;;;66.18;26.65;;;;;;;16.74;79.30;101409.81;5013251;28;20580;-50
2021/09/27 03:59:05;;;;;;;59.90;24.00;;;;;;;16.69;79.50;101410.72;5007953;28;20417;-51
2021/09/27 04:01:38;;;;;;;53.95;24.25;;;;;;;16.79;79.15;101415.06;4997377;28;20037;-49
2021/09/27 04:04:25;;;;;;;64.90;26.42;;;;;;;16.78;79.54;101411.56;4993009;28;20041;-50
2021/09/27 04:07:25;;;;;;;61.50;25.08;;;;;;;16.74;79.11;101411.56;4995116;28;20060;-49
2021/09/27 04:09:55;;;;;;;54.08;23.67;;;;;;;16.75;78.94;101402.81;5011071;28;20037;-51
2021/09/27 04:12:37;;;;;;;57.03;23.67;;;;;;;16.66;78.96;101403.69;4999373;28;20453;-48
2021/09/27 04:15:03;;;;;;;50.30;23.40;;;;;;;16.63;78.98;101399.34;4993602;28;20239;-53
2021/09/27 04:17:56;;;;;;;57.83;25.08;;;;;;;16.50;79.34;101396.69;4999465;28;20041;-52
2021/09/27 04:20:48;;;;;;;62.10;27.10;;;;;;;16.54;79.83;101399.31;5003427;28;20052;-52
2021/09/27 04:23:39;;;;;;;70.22;28.17;;;;;;;16.58;80.21;101389.66;5013271;28;20541;-50
2021/09/27 04:26:14;;;;;;;64.30;26.08;;;;;;;16.62;79.92;101391.44;5004648;28;20042;-50
2021/09/27 04:28:57;;;;;;;66.25;27.58;;;;;;;16.65;79.88;101386.16;5000834;28;20041;-53
2021/09/27 04:31:58;;;;;;;72.95;27.80;;;;;;;16.57;80.15;101383.53;5003603;28;20139;-51
2021/09/27 04:34:31;;;;;;;62.40;26.17;;;;;;;16.60;80.17;101388.78;5001032;28;20050;-54
2021/09/27 04:36:57;;;;;;;64.10;27.83;;;;;;;16.50;80.02;101388.81;4994372;28;20122;-55
2021/09/27 04:39:25;;;;;;;71.00;26.83;;;;;;;16.51;80.06;101388.81;5006554;28;20041;-51
2021/09/27 04:42:09;;;;;;;69.60;28.20;;;;;;;16.45;80.08;101387.94;5001777;28;20084;-57
2021/09/27 04:44:41;;;;;;;70.55;28.60;;;;;;;16.46;80.22;101384.44;5003903;28;20784;-53
2021/09/27 04:47:06;;;;;;;66.25;27.75;;;;;;;16.49;80.11;101387.03;4996105;28;20352;-53
2021/09/27 04:49:39;;;;;;;62.17;26.55;;;;;;;16.43;80.25;101390.56;5004440;28;20084;-52
2021/09/27 04:52:11;;;;;;;62.60;26.60;;;;;;;16.38;80.40;101386.19;5002620;28;20500;-49
2021/09/27 04:54:46;;;;;;;76.60;29.80;;;;;;;16.43;80.37;101385.31;5003016;28;20037;-51
2021/09/27 04:57:28;;;;;;;64.10;26.60;;;;;;;16.56;79.62;101383.53;4997015;28;20052;-49
2021/09/27 04:59:56;;;;;;;64.40;26.65;;;;;;;16.47;79.87;101383.53;5001393;28;20073;-52
2021/09/27 05:02:50;;;;;;;69.35;27.48;;;;;;;16.41;80.21;101376.53;5002309;28;20049;-50
2021/09/27 05:05:15;;;;;;;76.07;28.88;;;;;;;16.48;79.92;101375.63;5001825;28;20045;-51
2021/09/27 05:08:12;;;;;;;72.93;28.35;;;;;;;16.44;80.27;101373.03;5000925;28;20721;-48
2021/09/27 05:10:42;;;;;;;76.70;28.52;;;;;;;16.38;80.36;101362.53;4996007;28;20068;-53
2021/09/27 05:13:13;;;;;;;76.53;29.70;;;;;;;16.40;80.25;101360.78;4997693;28;20398;-53
2021/09/27 05:16:13;;;;;;;82.15;29.95;;;;;;;16.42;80.86;101354.59;5003758;28;20580;-53
2021/09/27 05:18:57;;;;;;;82.20;30.27;;;;;;;16.50;80.85;101354.59;4999640;28;20164;-51
2021/09/27 05:21:30;;;;;;;76.20;29.83;;;;;;;16.45;81.14;101356.38;5003110;28;20472;-53
2021/09/27 05:24:10;;;;;;;76.68;29.73;;;;;;;16.66;80.63;101356.31;5001414;28;20049;-52
2021/09/27 05:26:44;;;;;;;80.47;30.17;;;;;;;16.65;80.68;101354.56;5002478;28;20045;-50
2021/09/27 05:29:27;;;;;;;74.40;30.23;;;;;;;16.66;80.66;101345.78;4996998;28;20729;-53
2021/09/27 05:32:22;;;;;;;74.97;30.42;;;;;;;16.76;80.22;101347.50;4998065;28;20498;-53
2021/09/27 05:35:08;;;;;;;77.97;30.80;;;;;;;16.75;80.69;101343.13;4972271;28;20088;-52
2021/09/27 05:37:57;;;;;;;76.47;30.27;;;;;;;16.77;80.54;101338.69;4998516;28;20069;-53
2021/09/27 05:40:32;;;;;;;70.30;29.38;;;;;;;16.73;80.89;101336.09;5006462;28;20176;-52
2021/09/27 05:43:24;;;;;;;73.53;29.73;;;;;;;16.77;80.85;101335.22;4993387;28;20509;-53
2021/09/27 05:45:55;;;;;;;70.80;28.52;;;;;;;16.87;80.42;101327.25;5002099;28;20087;-50
2021/09/27 05:48:40;;;;;;;73.60;30.00;;;;;;;16.96;80.12;101331.59;5004504;28;20558;-49
2021/09/27 05:51:27;;;;;;;67.50;27.42;;;;;;;16.98;80.20;101333.34;4991757;28;20221;-50
2021/09/27 05:54:01;;;;;;;61.28;28.27;;;;;;;17.11;80.03;101331.50;5004810;28;20133;-52
2021/09/27 05:56:36;;;;;;;65.93;27.95;;;;;;;17.14;79.75;101338.53;4997264;28;20141;-51
2021/09/27 05:59:12;;;;;;;56.10;26.00;;;;;;;17.21;79.52;101334.94;4975479;28;20041;-52
2021/09/27 06:02:00;;;;;;;59.28;26.48;;;;;;;17.22;79.55;101334.06;5001633;28;20064;-51
2021/09/27 06:04:32;;;;;;;53.33;24.30;;;;;;;17.42;79.30;101335.69;4991715;28;20421;-54
2021/09/27 06:07:11;;;;;;;50.85;24.67;;;;;;;17.49;78.94;101333.00;4974410;28;20037;-53
2021/09/27 06:10:06;;;;;;;45.58;22.73;;;;;;;17.52;79.09;101325.06;4993924;28;20620;-52
2021/09/27 06:12:39;;;;;;;39.47;20.85;;;;;;;17.58;78.35;101328.53;4981011;28;20045;-49
2021/09/27 06:15:12;;;;;;;39.60;20.85;;;;;;;17.63;78.53;101323.25;4991391;28;20057;-50
2021/09/27 06:17:53;;;;;;;36.53;18.88;;;;;;;17.70;78.12;101328.47;5012125;28;20049;-51
2021/09/27 06:20:46;;;;;;;37.08;19.02;;;;;;;17.71;77.67;101322.31;5004258;28;20555;-50
2021/09/27 06:23:20;;;;;;;34.67;17.80;;;;;;;17.64;77.60;101332.91;4994968;28;21957;-51
2021/09/27 06:26:07;;;;;;;33.17;18.13;;;;;;;17.67;77.61;101319.72;5001795;28;20460;-53
2021/09/27 06:28:44;;;;;;;34.35;18.00;;;;;;;17.65;77.57;101327.63;5000827;28;20114;-50
2021/09/27 06:31:26;;;;;;;33.90;17.52;;;;;;;17.68;77.72;101325.00;4988247;28;20140;-50
2021/09/27 06:33:52;;;;;;;33.22;17.52;;;;;;;17.57;78.19;101315.34;5001289;28;20491;-51
2021/09/27 06:36:22;;;;;;;29.90;16.88;;;;;;;17.59;77.87;101310.94;4997736;28;20054;-51
2021/09/27 06:38:52;;;;;;;28.73;16.25;;;;;;;17.73;77.55;101301.19;4996462;28;20049;-52
2021/09/27 06:41:19;;;;;;;29.42;16.40;;;;;;;17.75;77.24;101291.50;4996738;28;20056;-53
2021/09/27 06:43:45;;;;;;;27.13;16.15;;;;;;;17.72;77.35;101287.16;4997558;28;20588;-54
2021/09/27 06:46:10;;;;;;;30.45;15.30;;;;;;;17.81;76.95;101278.25;5002919;28;20405;-52
2021/09/27 06:48:35;;;;;;;24.38;14.32;;;;;;;17.99;75.79;101272.78;5001154;28;20041;-50
2021/09/27 06:51:01;;;;;;;27.33;14.85;;;;;;;17.84;76.81;101279.13;4995838;28;20068;-50
2021/09/27 06:53:28;;;;;;;23.38;13.93;;;;;;;17.91;76.22;101269.38;4994243;28;20493;-53
2021/09/27 06:55:54;;;;;;;24.30;13.98;;;;;;;17.99;76.00;101271.94;5003131;28;20104;-53
2021/09/27 06:58:23;;;;;;;25.02;13.65;;;;;;;18.07;75.77;101275.34;4998698;28;20037;-49
2021/09/27 07:00:48;;;;;;;22.33;13.68;;;;;;;18.15;75.23;101276.16;4997604;28;20092;-54
2021/09/27 07:03:14;;;;;;;24.08;13.48;;;;;;;18.14;75.38;101280.53;4996871;28;20628;-52
2021/09/27 07:05:41;;;;;;;20.25;13.18;;;;;;;18.18;75.05;101263.78;4998182;28;20489;-50
2021/09/27 07:08:06;;;;;;;21.95;13.70;;;;;;;18.20;74.80;101277.84;4993764;28;20033;-53
2021/09/27 07:10:31;;;;;;;23.08;13.52;;;;;;;18.16;75.08;101273.50;4996947;28;20587;-48
2021/09/27 07:12:57;;;;;;;20.83;13.30;;;;;;;18.36;74.91;101275.03;4992904;28;20066;-49
2021/09/27 07:15:22;;;;;;;23.67;13.63;;;;;;;18.22;75.50;101280.47;4997411;28;20128;-49
2021/09/27 07:17:48;;;;;;;21.13;13.80;;;;;;;18.41;74.74;101282.00;4999404;28;20042;-53
2021/09/27 07:20:22;;;;;;;24.08;13.57;;;;;;;18.57;74.73;101286.22;4982493;28;20571;-50
2021/09/27 07:22:47;;;;;;;;;;;;;;;18.59;74.88;101275.66;4990041;28;20457;-53
2021/09/27 07:25:15;;;;;;;20.85;12.88;;;;;;;18.77;74.26;101283.31;4986010;28;19921;-56
2021/09/27 07:27:40;;;;;;;18.58;12.57;;;;;;;18.79;73.72;101283.28;4990789;28;20053;-54
2021/09/27 07:30:08;;;;;;;21.52;13.07;;;;;;;18.98;73.63;101296.22;4997982;28;20049;-50
2021/09/27 07:32:34;;;;;;;21.85;13.45;;;;;;;18.99;73.34;101294.44;5000649;28;20045;-52
2021/09/27 07:34:59;;;;;;;21.95;13.70;;;;;;;19.05;73.35;101291.72;4992023;28;20563;-50
2021/09/27 07:37:24;;;;;;;22.00;14.27;;;;;;;19.11;72.95;101281.06;4995447;28;20156;-49
2021/09/27 07:39:50;;;;;;;23.27;15.25;;;;;;;19.26;72.74;101267.59;5000750;28;20107;-52
2021/09/27 07:42:15;;;;;;;23.55;15.70;;;;;;;19.23;73.02;101279.97;4990056;28;20046;-52
2021/09/27 07:44:41;;;;;;;25.38;16.30;;;;;;;19.24;72.91;101273.81;4997951;28;20175;-52
2021/09/27 07:47:07;;;;;;;24.23;16.13;;;;;;;19.38;72.21;101264.78;4993357;28;20453;-50
2021/09/27 07:49:32;;;;;;;27.58;17.10;;;;;;;19.36;72.58;101266.56;4996514;28;20041;-52
2021/09/27 07:51:58;;;;;;;25.20;17.85;;;;;;;19.15;73.27;101266.03;4997525;28;20049;-49
2021/09/27 07:54:24;;;;;;;29.30;18.00;;;;;;;19.34;72.35;101265.69;4997991;28;20394;-51
2021/09/27 07:56:50;;;;;;;29.00;18.80;;;;;;;19.13;72.98;101257.25;4994582;28;20048;-50
2021/09/27 07:59:15;;;;;;;28.02;18.95;;;;;;;19.02;73.94;101254.78;4991728;28;20050;-52
2021/09/27 08:01:41;;;;;;;28.15;17.80;;;;;;;19.33;72.95;101249.88;4998086;28;20045;-51
2021/09/27 08:04:06;;;;;;;28.27;18.15;;;;;;;19.39;72.09;101255.06;4998375;28;20123;-52
2021/09/27 08:06:31;;;;;;;28.58;17.92;;;;;;;19.37;72.82;101262.13;4998223;28;20167;-49
2021/09/27 08:08:57;;;;;;;29.95;19.23;;;;;;;19.47;71.91;101263.75;4991677;28;20106;-51
2021/09/27 08:11:22;;;;;;;34.58;20.92;;;;;;;19.34;72.42;101270.97;4994477;28;20386;-52
2021/09/27 08:13:48;;;;;;;32.35;19.92;;;;;;;19.11;73.62;101253.75;4997781;28;20060;-52
2021/09/27 08:16:13;;;;;;;35.35;21.73;;;;;;;18.97;73.82;101246.91;4997251;28;20329;-49
2021/09/27 08:18:39;;;;;;;35.80;21.92;;;;;;;19.23;73.16;101241.22;4996457;28;20048;-50
2021/09/27 08:21:11;;;;;;;35.42;22.08;;;;;;;19.21;73.73;101239.50;4994281;28;20047;-50
2021/09/27 08:23:37;;;;;;;35.33;22.02;;;;;;;19.44;72.64;101240.88;4989924;28;20045;-52
2021/09/27 08:26:03;;;;;;;35.75;22.88;;;;;;;19.71;72.23;101233.34;4992826;28;20092;-52
2021/09/27 08:28:30;;;;;;;34.22;22.27;;;;;;;20.06;70.97;101225.63;4997598;28;20046;-51
2021/09/27 08:30:59;;;;;;;32.05;21.27;;;;;;;20.26;70.04;101220.78;4989395;28;20100;-52
2021/09/27 08:33:26;;;;;;;30.48;20.48;;;;;;;20.23;70.48;101212.03;4998311;28;20716;-51
2021/09/27 08:35:53;;;;;;;33.03;20.63;;;;;;;20.54;69.35;101205.22;4996931;28;20050;-53
2021/09/27 08:38:19;;;;;;;30.00;20.33;;;;;;;20.55;68.83;101208.75;4997859;28;20207;-51
2021/09/27 08:40:57;;;;;;;29.27;20.20;;;;;;;20.69;68.34;101201.34;5001950;28;20576;-48
2021/09/27 08:43:37;;;;;;;28.90;19.58;;;;;;;20.83;67.71;101211.63;4997829;28;20056;-54
2021/09/27 08:46:12;;;;;;;27.98;19.02;;;;;;;20.82;68.16;101215.16;4995685;28;20228;-51
2021/09/27 08:48:47;;;;;;;26.60;18.98;;;;;;;20.79;68.00;101207.31;4993974;28;20481;-54
2021/09/27 08:51:12;;;;;;;28.88;18.25;;;;;;;20.79;68.92;101216.13;4995519;28;20126;-52
2021/09/27 08:53:41;;;;;;;25.95;17.88;;;;;;;20.72;68.66;101203.94;4998133;28;20446;-52
2021/09/27 08:56:25;;;;;;;28.23;18.58;;;;;;;20.74;68.72;101201.25;5001861;28;20037;-50
2021/09/27 08:59:11;;;;;;;;;;;;;;;20.73;68.44;101197.72;4987628;28;20049;-51
2021/09/27 09:01:46;;;;;;;26.48;18.23;;;;;;;20.86;68.82;101200.97;4997241;28;19971;-51
2021/09/27 09:04:25;;;;;;;23.98;16.95;;;;;;;21.22;66.40;101191.28;5001762;28;20091;-50
2021/09/27 09:06:57;;;;;;;26.50;16.70;;;;;;;21.36;66.16;101194.41;4979253;28;20253;-50
2021/09/27 09:09:26;;;;;;;21.80;15.40;;;;;;;20.93;66.28;101199.88;4986681;28;20581;-48
2021/09/27 09:12:14;;;;;;;26.55;15.75;;;;;;;20.75;68.50;101193.25;4997910;28;20045;-51
2021/09/27 09:14:46;;;;;;;24.30;14.30;;;;;;;21.12;66.55;101181.75;4995425;28;20050;-49
2021/09/27 09:17:33;;;;;;;20.00;14.10;;;;;;;20.95;66.61;101185.69;4977840;28;22199;-52
2021/09/27 09:20:00;;;;;;;22.88;12.60;;;;;;;20.93;66.78;101186.63;5003714;28;20081;-48
2021/09/27 09:22:34;;;;;;;16.55;11.88;;;;;;;20.93;66.04;101187.50;4993822;28;20048;-53
2021/09/27 09:25:00;;;;;;;18.20;11.80;;;;;;;20.98;66.19;101180.31;4990631;28;20053;-50
2021/09/27 09:27:25;;;;;;;19.90;11.02;;;;;;;21.04;65.99;101174.84;4999529;28;20057;-51
2021/09/27 09:29:52;;;;;;;18.30;11.20;;;;;;;21.16;66.13;101178.16;4997322;28;20370;-50
2021/09/27 09:32:26;;;;;;;20.27;10.73;;;;;;;21.18;66.30;101171.03;4997189;28;20372;-52
2021/09/27 09:35:12;;;;;;;13.68;10.07;;;;;;;21.34;64.95;101167.09;4992139;28;20505;-50
2021/09/27 09:37:47;;;;;;;18.17;10.40;;;;;;;21.07;66.33;101173.91;5001304;28;20505;-48
2021/09/27 09:40:21;;;;;;;14.48;9.32;;;;;;;21.34;64.72;101169.75;5002244;28;20048;-51
2021/09/27 09:43:15;;;;;;;15.63;9.70;;;;;;;21.56;64.74;101168.25;4999607;28;20044;-52
2021/09/27 09:45:45;;;;;;;14.68;9.55;;;;;;;21.61;64.01;101166.31;4993381;28;20048;-51
2021/09/27 09:48:20;;;;;;;14.45;9.48;;;;;;;21.48;64.33;101170.22;4998478;28;20132;-52
2021/09/27 09:50:47;;;;;;;14.25;9.32;;;;;;;21.59;64.40;101167.31;5000654;28;20398;-51
2021/09/27 09:53:34;;;;;;;17.17;9.65;;;;;;;21.52;64.07;101155.97;4997526;28;20052;-48
2021/09/27 09:56:17;;;;;;;14.63;8.82;;;;;;;21.56;64.17;101152.31;4998841;28;20300;-49
2021/09/27 09:58:49;;;;;;;13.07;8.73;;;;;;;21.60;63.48;101147.78;4995721;28;20128;-50
2021/09/27 10:01:27;;;;;;;13.75;8.68;;;;;;;21.51;63.68;101156.00;4995832;28;20080;-51
2021/09/27 10:04:04;;;;;;;12.30;8.30;;;;;;;21.38;64.90;101159.00;4995261;28;20045;-51
2021/09/27 10:06:35;;;;;;;11.70;8.10;;;;;;;21.46;64.10;101158.81;5017463;28;20286;-49
2021/09/27 10:09:04;;;;;;;11.80;7.90;;;;;;;21.65;63.28;101164.47;4989841;28;20300;-48
2021/09/27 10:11:36;;;;;;;13.35;7.93;;;;;;;21.74;63.64;101158.91;5001020;28;20280;-48
2021/09/27 10:14:22;;;;;;;13.55;7.30;;;;;;;21.80;64.36;101170.22;4998831;28;20102;-50
2021/09/27 10:16:54;;;;;;;11.68;6.78;;;;;;;22.07;61.95;101167.72;4985617;28;20955;-51
2021/09/27 10:19:29;;;;;;;10.27;6.35;;;;;;;22.14;62.02;101161.31;4996350;28;20048;-48
2021/09/27 10:22:15;;;;;;;10.65;5.93;;;;;;;22.48;60.60;101164.69;4998842;28;20391;-55
2021/09/27 10:24:47;;;;;;;11.35;5.40;;;;;;;22.29;60.79;101154.66;4997274;28;20544;-51
2021/09/27 10:27:31;;;;;;;7.55;4.60;;;;;;;22.14;60.45;101145.41;4994021;28;20212;-53
2021/09/27 10:29:59;;;;;;;;;;;;;;;22.17;59.64;101139.97;4995418;28;20509;-52
2021/09/27 10:32:38;;;;;;;9.45;4.40;;;;;;;22.22;60.94;101140.69;4995237;28;19921;-49
2021/09/27 10:35:49;;;;;;;7.13;4.35;;;;;;;22.39;60.68;101140.16;4988882;28;20509;-54
2021/09/27 10:38:45;;;;;;;12.25;4.32;;;;;;;22.44;58.99;101135.63;4995519;28;20038;-53
2021/09/27 10:41:29;;;;;;;10.25;4.18;;;;;;;22.41;59.20;101133.91;4990463;28;20042;-50
2021/09/27 10:44:00;;;;;;;9.70;4.00;;;;;;;22.23;60.11;101145.09;4996572;28;20052;-50
2021/09/27 10:46:32;;;;;;;8.57;4.03;;;;;;;22.54;58.17;101131.72;4999545;28;20041;-50
2021/09/27 10:48:58;;;;;;;8.75;4.32;;;;;;;22.91;57.62;101131.44;4990055;28;20046;-50
2021/09/27 10:51:38;;;;;;;10.20;3.95;;;;;;;23.15;56.96;101129.75;4999964;28;20072;-49
2021/09/27 10:54:24;;;;;;;6.85;3.53;;;;;;;23.09;57.24;101128.16;4999228;28;20053;-51
2021/09/27 10:56:53;;;;;;;5.53;3.55;;;;;;;23.09;57.24;101119.31;5000535;28;20083;-54
2021/09/27 10:59:59;;;;;;;8.15;3.80;;;;;;;22.96;57.23;101117.06;4993590;28;20037;-52
2021/09/27 11:02:40;;;;;;;10.55;3.90;;;;;;;22.89;56.57;101125.28;4999173;28;20049;-53
2021/09/27 11:05:25;;;;;;;7.45;3.80;;;;;;;23.04;57.75;101114.16;4992659;28;20336;-53
2021/09/27 11:07:54;;;;;;;12.68;4.05;;;;;;;23.03;56.44;101105.31;5000660;28;20523;-51
2021/09/27 11:10:22;;;;;;;8.82;4.00;;;;;;;23.11;57.34;101106.84;4996255;28;20071;-50
2021/09/27 11:12:50;;;;;;;7.80;3.70;;;;;;;23.29;57.06;101100.88;4996886;28;20340;-52
2021/09/27 11:15:41;;;;;;;10.77;3.70;;;;;;;23.37;55.15;101099.66;4994854;28;20468;-49
2021/09/27 11:18:26;;;;;;;6.43;3.63;;;;;;;23.29;55.79;101104.41;4996249;28;20049;-51
2021/09/27 11:21:16;;;;;;;5.80;3.40;;;;;;;23.14;56.43;101104.06;4988563;28;20064;-55
2021/09/27 11:23:43;;;;;;;5.95;3.58;;;;;;;23.38;56.15;101108.50;4998034;28;20056;-53
2021/09/27 11:26:16;;;;;;;8.55;3.70;;;;;;;23.32;56.71;101098.97;5000775;28;20052;-53
2021/09/27 11:29:01;;;;;;;8.48;3.33;;;;;;;23.37;56.07;101106.78;4998126;28;20139;-51
2021/09/27 11:31:26;;;;;;;7.63;3.72;;;;;;;23.54;56.17;101120.41;4997912;28;20177;-48
2021/09/27 11:33:51;;;;;;;5.53;3.22;;;;;;;23.63;55.60;101103.22;5000672;28;20535;-50
2021/09/27 11:36:16;;;;;;;9.07;3.75;;;;;;;23.52;56.48;101106.28;4999063;28;20133;-51
2021/09/27 11:38:45;;;;;;;17.23;3.57;;;;;;;23.48;55.73;101107.31;4989803;28;20486;-53
2021/09/27 11:41:10;;;;;;;10.35;3.38;;;;;;;23.07;57.83;101114.03;4992100;28;22171;-51
2021/09/27 11:44:13;;;;;;;6.32;3.50;;;;;;;22.77;58.47;101117.72;4994785;28;20508;-50
2021/09/27 11:46:41;;;;;;;8.88;3.88;;;;;;;22.23;62.31;101123.84;4993797;28;20112;-54
2021/09/27 11:52:02;;;;;;;;;;;;;;;21.96;63.48;101128.19;4999814;28;20076;-54